Time;durP1;ratioP1;P1;durP2;ratioP2;P2;SDS_P1;SDS_P2;PMS_P1;PMS_P2;Temp;Humidity;BMP_temperature;BMP_pressure;BME280_temperature;BME280_humidity;BME280_pressure;Samples;Min_cycle;Max_cycle;Signal;HPM_P1;HPM_P2
2023/03/11 00:00:17;;;;;;;13.20;6.90;;;;;;;6.42;77.73;98363.84;79467;1295;3011800;-60
2023/03/11 00:02:46;;;;;;;13.40;7.70;;;;;;;6.27;78.11;98360.93;78201;1294;3050998;-61
2023/03/11 00:05:21;;;;;;;12.80;7.50;;;;;;;6.13;78.67;98357.63;79430;1294;3014928;-62
2023/03/11 00:07:54;;;;;;;12.20;7.50;;;;;;;5.99;79.29;98355.28;78246;1295;3053938;-62
2023/03/11 00:10:22;;;;;;;11.10;7.30;;;;;;;5.96;79.71;98349.23;79518;1298;3013291;-62
2023/03/11 00:12:49;;;;;;;14.10;7.70;;;;;;;5.89;79.58;98343.72;79503;1298;3011645;-62
2023/03/11 00:15:18;;;;;;;14.30;7.60;;;;;;;5.80;79.96;98342.17;78196;1296;3070146;-61
2023/03/11 00:17:47;;;;;;;11.90;6.20;;;;;;;5.73;80.39;98338.57;79468;1298;3012967;-62
2023/03/11 00:20:18;;;;;;;11.60;5.70;;;;;;;6.20;79.38;98332.84;79010;1295;3011622;-61
2023/03/11 00:22:45;;;;;;;9.10;5.50;;;;;;;6.77;77.54;98332.10;79478;1295;3013838;-62
2023/03/11 00:25:17;;;;;;;9.40;5.80;;;;;;;6.87;76.64;98329.55;78237;1298;3054107;-61
2023/03/11 00:27:44;;;;;;;12.20;6.60;;;;;;;6.86;77.00;98325.32;79498;1295;3014876;-68
2023/03/11 00:30:12;;;;;;;10.50;6.80;;;;;;;6.67;76.78;98323.22;79489;1297;3013194;-63
2023/03/11 00:32:40;;;;;;;11.80;7.10;;;;;;;6.43;77.27;98316.83;78269;1298;3069645;-63
2023/03/11 00:35:11;;;;;;;13.40;7.60;;;;;;;6.32;78.12;98311.80;79545;1295;3011596;-61
2023/03/11 00:37:40;;;;;;;13.30;7.40;;;;;;;6.15;78.23;98313.34;78071;1295;3049286;-62
2023/03/11 00:40:13;;;;;;;11.00;7.50;;;;;;;6.01;78.89;98309.45;79443;1296;3013722;-61
2023/03/11 00:42:41;;;;;;;14.50;7.20;;;;;;;5.89;79.20;98311.42;78278;1298;3052224;-60
2023/03/11 00:45:10;;;;;;;12.50;7.20;;;;;;;5.76;79.96;98306.77;79477;1297;3012994;-61
2023/03/11 00:47:42;;;;;;;11.10;6.80;;;;;;;5.69;80.24;98304.20;78269;1298;3067980;-60
2023/03/11 00:50:12;;;;;;;10.10;6.20;;;;;;;5.66;80.24;98307.67;79493;1298;3013032;-60
2023/03/11 00:52:41;;;;;;;9.90;5.90;;;;;;;6.14;79.33;98304.32;78855;1295;3013906;-61
2023/03/11 00:55:09;;;;;;;11.50;6.00;;;;;;;6.75;78.02;98294.34;79381;1300;3013465;-61
2023/03/11 00:57:36;;;;;;;11.80;6.40;;;;;;;6.81;77.01;98293.05;79313;1294;3011664;-61
2023/03/11 01:00:10;;;;;;;10.70;6.30;;;;;;;6.70;77.13;98293.25;78198;1301;3052411;-62
2023/03/11 01:02:40;;;;;;;13.10;8.10;;;;;;;6.55;77.57;98286.34;78961;1297;3014001;-60
2023/03/11 01:05:07;;;;;;;13.90;8.00;;;;;;;6.37;77.96;98279.98;79419;1298;3012830;-61
2023/03/11 01:07:35;;;;;;;18.60;9.10;;;;;;;6.16;78.29;98274.50;79312;1296;3011543;-62
2023/03/11 01:10:05;;;;;;;19.70;8.60;;;;;;;5.96;79.47;98273.73;78244;1297;3056474;-62
2023/03/11 01:12:32;;;;;;;15.60;8.90;;;;;;;5.84;79.86;98266.52;79532;1298;3013438;-59
2023/03/11 01:15:04;;;;;;;14.60;8.10;;;;;;;5.74;80.31;98267.44;78968;1298;3013640;-62
2023/03/11 01:17:32;;;;;;;11.90;7.90;;;;;;;5.67;80.73;98266.09;79373;1295;3011670;-62
2023/03/11 01:19:58;;;;;;;12.50;5.80;;;;;;;5.62;81.14;98265.72;79502;1298;3013195;-62
2023/03/11 01:22:26;;;;;;;12.80;6.00;;;;;;;6.01;80.17;98264.13;78185;1294;3069121;-61
2023/03/11 01:24:52;;;;;;;10.10;6.40;;;;;;;6.57;78.44;98256.63;79448;1298;3013094;-61
2023/03/11 01:27:19;;;;;;;12.50;7.60;;;;;;;6.68;77.97;98257.55;79348;1296;3012865;-60
2023/03/11 01:29:47;;;;;;;15.30;8.60;;;;;;;6.55;78.07;98261.14;78198;1297;3028282;-60
2023/03/11 01:32:14;;;;;;;14.50;9.20;;;;;;;6.32;78.68;98262.23;79440;1298;3020562;-60
2023/03/11 01:34:40;;;;;;;15.90;9.60;;;;;;;6.22;79.29;98260.77;79401;1298;3011700;-61
2023/03/11 01:37:09;;;;;;;19.10;10.10;;;;;;;6.07;79.60;98256.27;78199;1296;3069117;-60
2023/03/11 01:39:36;;;;;;;16.80;10.10;;;;;;;5.92;79.93;98249.17;79441;1298;3013415;-60
2023/03/11 01:42:02;;;;;;;18.20;11.20;;;;;;;5.79;80.65;98252.23;79386;1298;3011766;-60
2023/03/11 01:44:31;;;;;;;18.60;10.90;;;;;;;5.66;81.59;98251.05;78074;1299;3053463;-60
2023/03/11 01:47:01;;;;;;;15.30;8.60;;;;;;;5.65;82.06;98241.77;79305;1301;3013677;-60
2023/03/11 01:49:33;;;;;;;12.50;8.00;;;;;;;6.08;81.22;98246.44;78189;1295;3053967;-61
2023/03/11 01:52:02;;;;;;;13.00;8.90;;;;;;;6.54;79.75;98239.46;79236;1300;3013320;-59
2023/03/11 01:54:37;;;;;;;14.90;9.40;;;;;;;6.77;79.08;98239.38;78197;1298;3056827;-62
2023/03/11 01:57:05;;;;;;;16.90;9.70;;;;;;;6.63;78.74;98238.55;79414;1296;3013435;-60
2023/03/11 01:59:43;;;;;;;17.50;10.60;;;;;;;6.41;79.19;98238.52;78085;1296;3053227;-61
2023/03/11 02:02:18;;;;;;;21.20;11.90;;;;;;;6.22;79.96;98233.44;79304;1295;3011449;-62
2023/03/11 02:04:46;;;;;;;16.80;10.70;;;;;;;5.98;80.77;98228.32;78003;1301;3052265;-61
2023/03/11 02:07:14;;;;;;;17.80;11.40;;;;;;;5.84;81.44;98225.85;79475;1297;3013861;-62
2023/03/11 02:09:41;;;;;;;21.70;11.50;;;;;;;5.73;81.88;98221.79;79435;1298;3013214;-60
2023/03/11 02:12:10;;;;;;;18.20;11.10;;;;;;;5.59;82.26;98217.58;78139;1296;3056162;-61
2023/03/11 02:14:39;;;;;;;13.20;7.90;;;;;;;5.54;82.49;98218.79;79421;1298;3012931;-61
2023/03/11 02:17:12;;;;;;;12.20;7.40;;;;;;;6.00;81.45;98208.34;78134;1298;3050357;-59
2023/03/11 02:19:59;;;;;;;13.00;7.80;;;;;;;6.47;79.19;98203.55;79233;1301;3012951;-62
2023/03/11 02:22:32;;;;;;;12.40;7.40;;;;;;;6.58;78.61;98205.09;78139;1301;3054191;-61
2023/03/11 02:25:10;;;;;;;16.80;9.30;;;;;;;6.31;78.80;98209.22;79288;1296;3013196;-61
2023/03/11 02:27:44;;;;;;;16.20;10.20;;;;;;;6.06;79.75;98207.30;78131;1299;3051247;-60
2023/03/11 02:30:14;;;;;;;;;;;;;;;5.95;79.81;98204.84;79401;1301;3011803;-60
2023/03/11 02:32:43;;;;;;;16.80;8.70;;;;;;;5.71;80.09;98204.91;78158;1300;3049820;-60
2023/03/11 02:35:10;;;;;;;17.60;10.50;;;;;;;5.53;80.40;98201.43;79444;1299;3013614;-61
2023/03/11 02:37:42;;;;;;;16.10;9.80;;;;;;;5.38;80.87;98208.41;79391;1299;3011651;-62
2023/03/11 02:40:32;;;;;;;15.40;9.80;;;;;;;5.25;81.11;98202.42;78141;1301;3053323;-60
2023/03/11 02:43:12;;;;;;;16.80;10.50;;;;;;;5.05;81.60;98196.34;78087;1301;3070172;-61
2023/03/11 02:45:42;;;;;;;14.00;7.80;;;;;;;4.94;82.90;98195.34;78141;1301;3051939;-60
2023/03/11 02:48:10;;;;;;;12.10;6.60;;;;;;;5.50;82.01;98196.45;79505;1293;3012862;-61
2023/03/11 02:50:36;;;;;;;12.30;7.90;;;;;;;6.03;79.60;98190.42;79281;1294;3011811;-62
2023/03/11 02:53:05;;;;;;;10.80;8.20;;;;;;;6.07;78.82;98189.70;78061;1301;3050544;-62
2023/03/11 02:55:32;;;;;;;13.40;9.00;;;;;;;5.94;79.24;98193.09;79407;1301;3014274;-61
2023/03/11 02:57:59;;;;;;;16.20;9.90;;;;;;;5.66;80.16;98191.33;79468;1298;3011695;-61
2023/03/11 03:00:27;;;;;;;13.40;9.70;;;;;;;5.45;80.73;98189.23;78249;1300;3053310;-61
2023/03/11 03:02:59;;;;;;;17.80;10.60;;;;;;;5.26;81.57;98181.72;79410;1295;3013101;-61
2023/03/11 03:05:27;;;;;;;15.30;9.60;;;;;;;5.19;82.40;98187.84;78294;1298;3050166;-60
2023/03/11 03:07:54;;;;;;;17.30;9.50;;;;;;;5.14;82.30;98181.67;79349;1299;3013950;-61
2023/03/11 03:10:21;;;;;;;16.20;10.60;;;;;;;5.02;82.44;98187.09;79427;1298;3011694;-62
2023/03/11 03:12:56;;;;;;;12.10;7.10;;;;;;;4.84;83.12;98182.36;78293;1298;3053375;-62
2023/03/11 03:15:23;;;;;;;12.10;6.80;;;;;;;5.37;82.42;98178.08;79339;1300;3013430;-61
2023/03/11 03:17:51;;;;;;;12.10;7.00;;;;;;;5.96;80.24;98177.13;79323;1301;3011801;-60
2023/03/11 03:20:21;;;;;;;11.80;7.00;;;;;;;6.06;79.37;98168.34;78172;1298;3048944;-60
2023/03/11 03:22:49;;;;;;;13.10;7.90;;;;;;;5.94;79.40;98166.84;79444;1296;3013472;-61
2023/03/11 03:25:18;;;;;;;15.60;8.40;;;;;;;5.85;79.82;98161.63;78226;1298;3049621;-61
2023/03/11 03:27:45;;;;;;;13.90;9.30;;;;;;;5.59;80.18;98163.23;79515;1299;3013057;-61
2023/03/11 03:30:12;;;;;;;15.20;9.80;;;;;;;5.42;80.83;98159.52;79464;1298;3013634;-61
2023/03/11 03:32:41;;;;;;;15.20;9.20;;;;;;;5.32;81.28;98157.55;78190;1295;3052488;-61
2023/03/11 03:35:10;;;;;;;16.60;9.50;;;;;;;5.15;81.81;98152.12;79422;1299;3013874;-63
2023/03/11 03:38:17;;;;;;;13.30;8.90;;;;;;;4.94;82.79;98155.45;78074;1298;3049819;-60
2023/03/11 03:40:46;;;;;;;8.50;5.50;;;;;;;4.84;83.45;98157.25;79428;1299;3013153;-62
2023/03/11 03:43:16;;;;;;;11.60;6.80;;;;;;;5.20;82.88;98154.26;78079;1301;3052776;-62
2023/03/11 03:45:44;;;;;;;13.90;7.90;;;;;;;5.82;80.90;98164.08;79456;1298;3012907;-61
2023/03/11 03:48:11;;;;;;;15.70;8.20;;;;;;;5.90;80.27;98165.66;79414;1294;3011841;-62
2023/03/11 03:50:44;;;;;;;16.40;9.10;;;;;;;5.76;80.81;98159.41;78264;1298;3055324;-62
2023/03/11 03:53:14;;;;;;;17.10;9.60;;;;;;;5.44;81.90;98156.66;79475;1298;3011589;-62
2023/03/11 03:55:43;;;;;;;16.90;10.00;;;;;;;5.30;82.67;98151.23;78936;1297;3011670;-61
2023/03/11 03:58:10;;;;;;;18.10;10.20;;;;;;;5.15;83.27;98151.48;79425;1298;3015511;-62
2023/03/11 04:00:38;;;;;;;19.40;10.80;;;;;;;5.09;83.72;98153.88;79243;1301;3011618;-63
2023/03/11 04:03:06;;;;;;;21.70;11.50;;;;;;;4.94;84.23;98155.29;78237;1298;3069515;-61
2023/03/11 04:05:44;;;;;;;13.60;7.20;;;;;;;4.91;84.61;98145.39;78209;1298;3051845;-62
2023/03/11 04:08:12;;;;;;;14.60;7.00;;;;;;;5.51;83.40;98132.27;79257;1301;3013078;-62
2023/03/11 04:10:43;;;;;;;15.80;9.10;;;;;;;6.12;80.94;98133.73;78176;1299;3052550;-61
2023/03/11 04:13:10;;;;;;;19.00;9.70;;;;;;;6.25;79.89;98127.55;79413;1299;3013223;-62
2023/03/11 04:15:38;;;;;;;25.90;12.80;;;;;;;6.01;79.68;98125.58;79411;1298;3011864;-62
2023/03/11 04:18:06;;;;;;;22.80;11.90;;;;;;;5.69;80.52;98120.39;78240;1298;3068954;-62
2023/03/11 04:20:33;;;;;;;22.40;12.30;;;;;;;5.53;81.19;98126.62;79439;1298;3018973;-62
2023/03/11 04:23:00;;;;;;;28.50;13.10;;;;;;;5.21;81.77;98126.08;79463;1296;3012741;-61
2023/03/11 04:25:29;;;;;;;29.20;12.60;;;;;;;5.13;82.34;98118.75;78261;1300;3052979;-60
2023/03/11 04:27:56;;;;;;;26.90;12.10;;;;;;;4.93;83.11;98123.75;79464;1298;3012849;-62
2023/03/11 04:30:22;;;;;;;28.80;13.20;;;;;;;4.78;83.66;98122.36;79305;1301;3011867;-62
2023/03/11 04:32:56;;;;;;;16.50;7.60;;;;;;;4.74;84.27;98117.92;78189;1295;3070348;-61
2023/03/11 04:35:27;;;;;;;17.40;8.40;;;;;;;5.26;83.14;98122.64;79305;1302;3011832;-62
2023/03/11 04:37:56;;;;;;;14.70;8.20;;;;;;;5.77;80.86;98117.30;78163;1299;3057326;-61
2023/03/11 04:40:24;;;;;;;16.20;8.90;;;;;;;5.85;79.96;98113.14;79478;1295;3013371;-62
2023/03/11 04:42:54;;;;;;;16.20;8.50;;;;;;;5.67;80.02;98123.32;78935;1298;3011646;-61
2023/03/11 04:45:21;;;;;;;16.20;8.60;;;;;;;5.51;80.83;98119.77;79403;1299;3013502;-60
2023/03/11 04:47:50;;;;;;;20.00;9.60;;;;;;;5.45;80.97;98124.16;79493;1298;3011643;-61
2023/03/11 04:50:18;;;;;;;18.10;9.10;;;;;;;5.20;81.25;98125.81;78232;1298;3070626;-61
2023/03/11 04:52:45;;;;;;;20.70;9.80;;;;;;;5.01;82.10;98119.13;79485;1298;3013043;-61
2023/03/11 04:55:13;;;;;;;20.80;10.50;;;;;;;4.84;82.89;98117.67;79411;1295;3013359;-61
2023/03/11 04:57:42;;;;;;;16.90;10.00;;;;;;;4.79;83.54;98113.27;78299;1298;3052731;-59
2023/03/11 05:00:12;;;;;;;16.60;7.30;;;;;;;4.68;84.16;98111.71;79496;1298;3013540;-61
2023/03/11 05:02:41;;;;;;;10.50;6.80;;;;;;;5.21;83.70;98112.02;78182;1300;3053313;-60
2023/03/11 05:05:09;;;;;;;14.70;7.10;;;;;;;5.87;80.97;98104.86;79452;1298;3020780;-60
2023/03/11 05:07:37;;;;;;;14.60;7.40;;;;;;;5.93;79.96;98106.91;79421;1295;3013058;-61
2023/03/11 05:10:07;;;;;;;13.90;7.50;;;;;;;5.87;80.16;98103.67;78235;1295;3057359;-60
2023/03/11 05:12:34;;;;;;;11.60;6.90;;;;;;;5.71;80.65;98101.15;79329;1299;3011732;-61
2023/03/11 05:15:05;;;;;;;9.50;7.00;;;;;;;5.58;81.18;98103.35;78754;1301;3011638;-61
2023/03/11 05:17:32;;;;;;;11.50;6.70;;;;;;;5.38;81.93;98102.52;79503;1298;3013700;-61
2023/03/11 05:19:58;;;;;;;12.80;6.70;;;;;;;5.27;82.73;98101.28;79389;1298;3011416;-62
2023/03/11 05:22:32;;;;;;;12.60;7.00;;;;;;;5.21;83.34;98100.02;78240;1295;3070141;-62
2023/03/11 05:24:59;;;;;;;7.20;4.40;;;;;;;5.11;83.98;98099.58;79489;1295;3013535;-61
2023/03/11 05:27:26;;;;;;;9.50;4.50;;;;;;;5.57;83.06;98107.59;79437;1294;3011903;-62
2023/03/11 05:29:57;;;;;;;9.70;5.50;;;;;;;6.15;81.15;98111.98;78218;1298;3054030;-62
2023/03/11 05:32:25;;;;;;;9.20;6.10;;;;;;;6.24;79.99;98113.32;79391;1298;3013199;-62
2023/03/11 05:34:55;;;;;;;9.40;5.30;;;;;;;5.94;80.70;98112.77;78917;1298;3011729;-61
2023/03/11 05:37:23;;;;;;;10.10;6.20;;;;;;;5.61;81.89;98119.81;79536;1298;3014579;-60
2023/03/11 05:39:54;;;;;;;9.30;6.00;;;;;;;5.44;83.35;98117.06;78898;1300;3011613;-62
2023/03/11 05:42:21;;;;;;;9.60;6.20;;;;;;;5.41;83.84;98113.77;79477;1295;3013326;-60
2023/03/11 05:44:47;;;;;;;9.80;6.50;;;;;;;5.27;84.61;98116.70;79482;1298;3011606;-60
2023/03/11 05:47:16;;;;;;;5.20;3.90;;;;;;;5.12;85.78;98110.84;78195;1299;3054853;-61
2023/03/11 05:49:46;;;;;;;8.70;4.80;;;;;;;5.61;85.30;98108.06;79464;1298;3013943;-62
2023/03/11 05:52:15;;;;;;;10.50;5.40;;;;;;;6.11;83.50;98099.42;78237;1298;3053144;-61
2023/03/11 05:54:42;;;;;;;8.70;5.50;;;;;;;6.24;82.59;98094.94;79428;1298;3013443;-60
2023/03/11 05:57:14;;;;;;;9.20;6.40;;;;;;;5.96;83.24;98104.86;78203;1299;3057232;-61
2023/03/11 05:59:42;;;;;;;10.50;6.70;;;;;;;5.61;85.01;98107.67;79502;1295;3011589;-62
2023/03/11 06:02:09;;;;;;;10.30;7.00;;;;;;;5.60;86.06;98105.14;79228;1294;3011605;-59
2023/03/11 06:04:39;;;;;;;11.00;7.20;;;;;;;5.48;86.65;98100.17;78211;1298;3053472;-60
2023/03/11 06:07:08;;;;;;;13.20;7.30;;;;;;;5.43;87.11;98098.18;79226;1301;3011969;-58
2023/03/11 06:09:39;;;;;;;6.50;3.90;;;;;;;5.32;88.15;98095.59;78039;1295;3068916;-60
2023/03/11 06:12:08;;;;;;;10.10;5.50;;;;;;;6.01;87.21;98092.00;79447;1296;3013100;-62
2023/03/11 06:15:09;;;;;;;10.80;5.50;;;;;;;6.52;84.13;98094.98;78141;1298;3056699;-62
2023/03/11 06:17:36;;;;;;;8.20;5.50;;;;;;;6.58;83.77;98093.22;79428;1295;3013653;-61
2023/03/11 06:20:08;;;;;;;10.30;5.40;;;;;;;6.34;84.53;98092.19;78151;1301;3051439;-61
2023/03/11 06:22:36;;;;;;;10.10;6.60;;;;;;;5.98;86.11;98086.98;79296;1300;3011625;-62
2023/03/11 06:25:03;;;;;;;10.80;6.30;;;;;;;6.05;86.72;98083.10;79273;1301;3011597;-62
2023/03/11 06:27:32;;;;;;;10.40;6.80;;;;;;;5.86;87.65;98089.11;78220;1298;3052805;-62
2023/03/11 06:29:59;;;;;;;6.30;4.20;;;;;;;5.87;88.23;98090.09;79538;1298;3013138;-61
2023/03/11 06:32:28;;;;;;;6.00;4.10;;;;;;;6.34;87.11;98087.30;79225;1295;3013077;-61
2023/03/11 06:34:56;;;;;;;14.90;9.60;;;;;;;6.76;85.30;98077.42;78190;1298;3051667;-62
2023/03/11 06:37:24;;;;;;;21.70;14.10;;;;;;;6.90;84.65;98083.77;79255;1301;3019775;-61
2023/03/11 06:39:52;;;;;;;13.70;9.50;;;;;;;7.01;84.13;98082.53;79418;1298;3011446;-61
2023/03/11 06:42:22;;;;;;;15.20;9.30;;;;;;;6.88;84.52;98078.02;78162;1298;3051709;-60
2023/03/11 06:44:57;;;;;;;13.10;8.60;;;;;;;6.71;85.22;98074.95;78859;1297;3011952;-61
2023/03/11 06:47:24;;;;;;;13.20;7.50;;;;;;;6.74;85.83;98071.98;79408;1299;3013682;-61
2023/03/11 06:49:51;;;;;;;9.60;5.40;;;;;;;6.63;86.31;98070.63;79511;1298;3012403;-61
2023/03/11 06:52:19;;;;;;;10.60;6.20;;;;;;;7.17;85.60;98070.26;78070;1302;3051578;-60
2023/03/11 06:54:46;;;;;;;9.20;5.80;;;;;;;7.63;83.36;98061.19;79413;1301;3020990;-61
2023/03/11 06:57:15;;;;;;;12.00;7.80;;;;;;;7.72;82.24;98057.23;79554;1302;3011947;-62
2023/03/11 06:59:44;;;;;;;13.50;8.80;;;;;;;7.49;83.21;98057.66;78109;1301;3053454;-61
2023/03/11 07:02:19;;;;;;;9.90;6.30;;;;;;;7.35;84.12;98059.70;78830;1301;3013596;-62
2023/03/11 07:04:49;;;;;;;12.20;8.10;;;;;;;7.23;85.00;98058.55;79294;1296;3012786;-61
2023/03/11 07:07:20;;;;;;;11.30;7.70;;;;;;;7.09;85.81;98054.28;78164;1302;3053676;-62
2023/03/11 07:09:49;;;;;;;7.40;5.10;;;;;;;7.09;86.28;98054.98;79402;1301;3011830;-62
2023/03/11 07:12:21;;;;;;;8.00;5.30;;;;;;;7.66;85.07;98047.20;78099;1309;3052694;-64
2023/03/11 07:14:48;;;;;;;8.10;6.00;;;;;;;8.27;82.34;98037.75;79351;1302;3011412;-60
2023/03/11 07:17:17;;;;;;;10.00;5.90;;;;;;;8.24;81.63;98038.10;78823;1302;3013601;-67
2023/03/11 07:19:47;;;;;;;10.40;6.70;;;;;;;8.24;81.26;98040.94;79409;1300;3011623;-69
2023/03/11 07:22:16;;;;;;;9.60;6.90;;;;;;;8.02;82.13;98036.61;78956;1301;3013403;-67
2023/03/11 07:24:45;;;;;;;12.60;6.70;;;;;;;7.67;83.50;98030.06;79460;1296;3013352;-65
2023/03/11 07:27:14;;;;;;;11.30;7.00;;;;;;;7.66;84.13;98022.81;78779;1299;3011598;-67
2023/03/11 07:29:41;;;;;;;11.10;7.50;;;;;;;7.68;83.95;98025.62;79422;1300;3018388;-65
2023/03/11 07:32:08;;;;;;;6.50;4.30;;;;;;;7.60;84.91;98023.95;79518;1304;3011764;-67
2023/03/11 07:34:36;;;;;;;7.90;5.10;;;;;;;8.13;83.47;98022.41;78462;1295;3068673;-62
2023/03/11 07:37:05;;;;;;;9.60;6.30;;;;;;;8.68;81.36;98015.54;79304;1301;3013310;-64
2023/03/11 07:39:35;;;;;;;7.60;6.00;;;;;;;8.79;80.29;98011.71;78901;1301;3013598;-62
2023/03/11 07:42:04;;;;;;;10.20;6.30;;;;;;;8.63;80.58;98006.79;79271;1296;3013158;-63
2023/03/11 07:44:36;;;;;;;10.80;6.80;;;;;;;8.53;81.36;98008.13;78079;1301;3051059;-65
2023/03/11 07:47:04;;;;;;;9.70;6.90;;;;;;;8.39;81.97;98003.91;79451;1294;3012759;-64
2023/03/11 07:49:35;;;;;;;10.60;7.50;;;;;;;8.28;82.68;98003.66;78783;1301;3011845;-62
2023/03/11 07:52:02;;;;;;;10.40;7.40;;;;;;;8.23;82.88;97998.98;79475;1301;3020872;-63
2023/03/11 07:54:29;;;;;;;7.10;4.70;;;;;;;7.98;84.07;97996.96;77687;1296;3013311;-63
2023/03/11 07:56:56;;;;;;;8.30;4.80;;;;;;;8.32;83.60;97994.98;78023;1301;3028432;-62
2023/03/11 07:59:24;;;;;;;7.80;5.40;;;;;;;8.70;81.63;97986.21;79260;1296;3020778;-65
2023/03/11 08:01:52;;;;;;;10.00;6.10;;;;;;;8.73;80.92;97993.31;79271;1301;3013088;-62
2023/03/11 08:04:19;;;;;;;8.90;5.90;;;;;;;8.54;81.86;97993.92;78065;1296;3053881;-62
2023/03/11 08:06:46;;;;;;;14.10;8.20;;;;;;;8.34;82.61;97992.70;79232;1300;3013247;-63
2023/03/11 08:09:13;;;;;;;13.50;8.50;;;;;;;8.15;83.70;97996.27;79339;1296;3011697;-63
2023/03/11 08:11:42;;;;;;;10.50;6.80;;;;;;;7.99;84.90;97992.34;77963;1300;3049006;-64
2023/03/11 08:14:09;;;;;;;11.60;7.10;;;;;;;7.92;84.96;97991.60;79290;1301;3014113;-64
2023/03/11 08:16:42;;;;;;;5.40;4.00;;;;;;;7.77;85.73;97979.88;78030;1300;3053422;-63
2023/03/11 08:19:11;;;;;;;6.20;4.40;;;;;;;8.17;85.12;97982.11;79386;1301;3012785;-62
2023/03/11 08:21:38;;;;;;;8.10;5.10;;;;;;;8.58;82.74;97978.58;79354;1301;3011622;-63
2023/03/11 08:24:06;;;;;;;6.10;4.80;;;;;;;8.54;82.30;97972.09;78015;1301;3056953;-62
2023/03/11 08:26:33;;;;;;;5.80;4.00;;;;;;;8.34;82.86;97975.48;79493;1302;3013515;-62
2023/03/11 08:29:00;;;;;;;5.80;3.80;;;;;;;8.12;83.44;97973.09;79190;1296;3011995;-62
2023/03/11 08:31:29;;;;;;;5.00;3.30;;;;;;;7.87;84.95;97970.91;78051;1300;3054172;-63
2023/03/11 08:34:05;;;;;;;4.90;3.50;;;;;;;7.74;85.36;97965.96;79345;1300;3011711;-63
2023/03/11 08:36:37;;;;;;;5.60;3.70;;;;;;;7.53;86.69;97970.73;78021;1301;3071938;-62
2023/03/11 08:39:04;;;;;;;3.90;2.40;;;;;;;7.42;87.49;97970.84;79330;1300;3013386;-63
2023/03/11 08:41:30;;;;;;;3.20;2.40;;;;;;;7.86;87.22;97966.45;79209;1295;3013030;-63
2023/03/11 08:43:58;;;;;;;4.60;3.20;;;;;;;8.25;85.39;97958.55;78007;1298;3054713;-63
2023/03/11 08:46:26;;;;;;;6.70;4.30;;;;;;;8.34;84.58;97951.23;79231;1298;3013563;-65
2023/03/11 08:48:53;;;;;;;6.60;3.90;;;;;;;8.13;85.13;97948.07;79314;1300;3013998;-62
2023/03/11 08:51:22;;;;;;;6.40;4.30;;;;;;;7.99;85.70;97940.40;78060;1301;3070013;-61
2023/03/11 08:53:49;;;;;;;7.40;4.20;;;;;;;7.70;87.32;97934.87;79275;1295;3013362;-65
2023/03/11 08:56:15;;;;;;;7.00;4.90;;;;;;;7.59;88.69;97940.31;79204;1295;3011903;-63
2023/03/11 08:58:44;;;;;;;5.00;3.50;;;;;;;7.50;89.32;97938.38;77970;1305;3052055;-64
2023/03/11 09:01:10;;;;;;;8.30;5.10;;;;;;;7.95;88.76;97943.61;79229;1301;3018413;-64
2023/03/11 09:03:37;;;;;;;8.60;5.50;;;;;;;8.45;86.71;97946.19;79310;1305;3011939;-63
2023/03/11 09:06:08;;;;;;;9.70;5.30;;;;;;;8.30;86.46;97941.21;78078;1300;3028927;-63
2023/03/11 09:08:35;;;;;;;10.40;6.00;;;;;;;8.29;86.76;97936.08;79324;1296;3013020;-63
2023/03/11 09:11:04;;;;;;;18.00;10.10;;;;;;;8.17;87.48;97938.52;78858;1296;3013359;-65
2023/03/11 09:13:34;;;;;;;13.90;6.80;;;;;;;7.84;89.41;97943.96;79246;1296;3013665;-64
2023/03/11 09:16:50;;;;;;;7.70;4.00;;;;;;;7.81;90.27;97947.52;80097;1299;3013151;-63
2023/03/11 09:19:17;;;;;;;6.70;3.90;;;;;;;8.33;89.60;97952.16;79096;1299;3012996;-62
2023/03/11 09:21:43;;;;;;;6.40;4.20;;;;;;;8.75;87.22;97939.75;79097;1298;3011837;-62
2023/03/11 09:24:11;;;;;;;8.90;5.60;;;;;;;8.77;86.50;97922.53;77859;1303;3029355;-66
2023/03/11 09:26:38;;;;;;;8.50;4.70;;;;;;;8.54;87.66;97921.67;79081;1303;3018803;-62
2023/03/11 09:29:05;;;;;;;10.30;5.30;;;;;;;8.41;88.64;97918.96;78125;1298;3011917;-64
2023/03/11 09:31:33;;;;;;;7.70;4.90;;;;;;;8.27;89.16;97918.58;77979;1300;3049401;-63
2023/03/11 09:34:00;;;;;;;5.50;2.70;;;;;;;8.20;89.92;97913.89;79297;1296;3018718;-64
2023/03/11 09:36:26;;;;;;;4.70;2.90;;;;;;;8.58;89.41;97913.25;79203;1301;3011648;-62
2023/03/11 09:38:54;;;;;;;6.10;3.60;;;;;;;9.19;87.13;97907.64;78066;1301;3025851;-65
2023/03/11 09:41:26;;;;;;;5.70;3.70;;;;;;;9.08;86.65;97899.34;79202;1297;3013154;-63
2023/03/11 09:44:07;;;;;;;6.30;4.30;;;;;;;8.87;87.73;97897.46;78341;1301;3049994;-62
2023/03/11 09:46:56;;;;;;;6.70;4.30;;;;;;;8.70;88.61;97889.87;78072;1298;3056037;-64
2023/03/11 09:49:46;;;;;;;8.50;4.50;;;;;;;8.57;90.03;97890.20;78211;1301;3049876;-66
2023/03/11 09:52:18;;;;;;;6.60;3.30;;;;;;;8.40;91.33;97884.33;78064;1295;3053552;-62
2023/03/11 09:54:47;;;;;;;6.30;3.00;;;;;;;8.98;89.77;97886.64;79220;1298;3013062;-65
2023/03/11 09:57:29;;;;;;;6.60;4.00;;;;;;;9.58;87.47;97880.81;78015;1302;3052139;-63
2023/03/11 09:59:56;;;;;;;9.10;4.50;;;;;;;9.48;86.76;97877.42;78078;1301;3053298;-63
2023/03/11 10:02:25;;;;;;;11.20;5.40;;;;;;;9.00;88.60;97865.17;79230;1298;3013094;-63
2023/03/11 10:05:27;;;;;;;7.90;4.60;;;;;;;8.91;89.83;97861.51;79272;1295;3011625;-63
2023/03/11 10:08:20;;;;;;;9.40;5.40;;;;;;;8.79;90.25;97854.77;78109;1295;3050403;-63
2023/03/11 10:11:30;;;;;;;6.20;2.90;;;;;;;8.65;92.39;97849.04;77959;1295;3055779;-63
2023/03/11 10:14:41;;;;;;;5.80;3.70;;;;;;;9.40;90.02;97851.16;78014;1298;3051835;-63
2023/03/11 10:18:08;;;;;;;6.50;3.90;;;;;;;9.65;87.89;97844.73;77895;1301;3052782;-62
2023/03/11 10:20:56;;;;;;;7.30;4.30;;;;;;;9.51;88.00;97835.02;77898;1301;3052956;-63
2023/03/11 10:24:06;;;;;;;10.10;5.40;;;;;;;9.16;89.81;97834.36;77860;1304;3069273;-63
2023/03/11 10:26:38;;;;;;;12.00;5.10;;;;;;;8.91;91.88;97825.19;77996;1298;3051574;-64
2023/03/11 10:29:20;;;;;;;6.80;3.60;;;;;;;8.88;92.70;97821.23;79262;1298;3014016;-62
2023/03/11 10:32:20;;;;;;;6.30;3.50;;;;;;;9.51;91.36;97820.17;77894;1300;3049992;-62
2023/03/11 10:34:52;;;;;;;8.30;3.70;;;;;;;9.86;88.65;97810.33;78085;1299;3054173;-63
2023/03/11 10:37:30;;;;;;;5.90;4.20;;;;;;;9.69;88.88;97809.41;79223;1295;3011482;-62
2023/03/11 10:40:36;;;;;;;9.50;4.70;;;;;;;9.54;89.87;97800.89;77975;1299;3053970;-63
2023/03/11 10:43:18;;;;;;;9.50;5.10;;;;;;;9.34;90.92;97794.48;77959;1301;3055428;-63
2023/03/11 10:45:47;;;;;;;4.60;2.50;;;;;;;9.21;92.07;97785.95;77998;1300;3068882;-63
2023/03/11 10:48:16;;;;;;;5.10;3.10;;;;;;;9.73;90.92;97771.39;79349;1299;3013332;-63
2023/03/11 10:51:09;;;;;;;4.00;3.00;;;;;;;10.11;88.98;97759.95;78092;1298;3028899;-62
2023/03/11 10:53:45;;;;;;;7.00;4.50;;;;;;;10.16;88.24;97752.69;77987;1295;3050293;-64
2023/03/11 10:56:24;;;;;;;6.90;4.70;;;;;;;9.92;89.25;97744.61;78288;1300;3053401;-64
2023/03/11 10:58:52;;;;;;;8.50;4.70;;;;;;;9.81;90.07;97739.74;77973;1298;3050894;-66
2023/03/11 11:01:20;;;;;;;7.70;4.80;;;;;;;9.60;91.21;97737.61;79343;1300;3012668;-64
2023/03/11 11:03:48;;;;;;;4.10;2.70;;;;;;;9.47;92.48;97744.52;79167;1300;3011777;-66
2023/03/11 11:06:27;;;;;;;5.20;3.50;;;;;;;10.02;91.14;97732.56;78116;1295;3049522;-64
2023/03/11 11:09:21;;;;;;;5.40;3.90;;;;;;;10.39;88.95;97726.02;78022;1295;3056441;-63
2023/03/11 11:12:04;;;;;;;6.90;3.90;;;;;;;10.36;88.25;97725.41;77988;1298;3049530;-63
2023/03/11 11:14:52;;;;;;;6.60;4.10;;;;;;;10.13;89.26;97723.39;78125;1296;3054683;-64
2023/03/11 11:17:27;;;;;;;6.20;4.50;;;;;;;10.01;89.98;97718.83;78004;1298;3049711;-62
2023/03/11 11:19:53;;;;;;;3.50;2.10;;;;;;;9.85;91.06;97711.90;79239;1300;3013314;-61
2023/03/11 11:22:22;;;;;;;5.10;2.70;;;;;;;10.26;90.17;97700.39;78117;1301;3053161;-66
2023/03/11 11:24:51;;;;;;;5.40;3.10;;;;;;;10.70;87.96;97701.20;79244;1301;3013331;-65
2023/03/11 11:27:25;;;;;;;4.40;3.40;;;;;;;10.62;87.70;97704.98;78639;1297;3011633;-64
2023/03/11 11:30:07;;;;;;;7.30;3.70;;;;;;;10.36;88.68;97705.16;79334;1295;3013592;-64
2023/03/11 11:32:37;;;;;;;5.60;3.60;;;;;;;10.22;89.17;97700.02;78036;1301;3050212;-63
2023/03/11 11:35:09;;;;;;;5.80;3.40;;;;;;;10.07;90.04;97698.57;79269;1299;3013250;-64
2023/03/11 11:37:45;;;;;;;2.40;1.50;;;;;;;9.83;91.55;97705.30;78084;1301;3052703;-65